createdAt,value
2018-10-19T00:03:03.085Z,44.37
2018-10-19T00:07:59.766Z,44.40
2018-10-19T00:12:56.536Z,45.37
2018-10-19T00:17:53.199Z,44.23
2018-10-19T00:22:49.945Z,45.83
2018-10-19T00:27:46.713Z,45.60
2018-10-19T00:32:43.431Z,44.70
2018-10-19T00:37:40.177Z,45.20
2018-10-19T00:42:36.941Z,44.17
2018-10-19T00:47:33.679Z,44.00
2018-10-19T00:52:30.351Z,46.97
2018-10-19T00:57:27.190Z,44.67
2018-10-19T01:02:23.924Z,44.90
2018-10-19T01:07:20.698Z,45.27
2018-10-19T01:12:17.468Z,45.93
2018-10-19T01:17:14.235Z,45.83
2018-10-19T01:22:10.896Z,47.57
2018-10-19T01:27:07.682Z,47.87
2018-10-19T01:32:04.483Z,45.50
2018-10-19T01:37:04.523Z,46.50
2018-10-19T01:42:01.214Z,44.63
2018-10-19T01:46:58.031Z,47.33
2018-10-19T01:51:54.778Z,45.10
2018-10-19T01:56:51.464Z,44.53
2018-10-19T02:01:48.141Z,44.17
2018-10-19T02:06:44.878Z,45.57
2018-10-19T02:11:41.616Z,44.50
2018-10-19T02:16:38.382Z,43.17
2018-10-19T02:21:35.168Z,42.43
2018-10-19T02:26:31.919Z,45.57
2018-10-19T02:31:28.694Z,44.10
2018-10-19T02:36:25.421Z,43.43
2018-10-19T02:41:22.113Z,43.77
2018-10-19T02:46:18.877Z,46.07
2018-10-19T02:51:15.572Z,45.23
2018-10-19T02:56:12.429Z,44.87
2018-10-19T03:01:09.154Z,44.87
2018-10-19T03:06:05.973Z,49.10
2018-10-19T03:11:02.722Z,50.90
2018-10-19T03:15:59.459Z,51.23
2018-10-19T03:20:56.230Z,47.43
2018-10-19T03:25:52.881Z,51.13
2018-10-19T03:30:49.667Z,48.73
2018-10-19T03:35:46.443Z,49.87
2018-10-19T03:40:43.211Z,49.23
2018-10-19T03:45:39.946Z,47.07
2018-10-19T03:50:36.708Z,47.57
2018-10-19T03:55:33.590Z,46.73
2018-10-19T04:00:30.271Z,47.63
2018-10-19T04:05:27.114Z,45.20
2018-10-19T04:10:23.831Z,45.20
2018-10-19T04:15:20.508Z,45.10
2018-10-19T04:20:17.170Z,45.20
2018-10-19T04:25:13.905Z,45.83
2018-10-19T04:30:10.622Z,44.13
2018-10-19T04:35:07.433Z,45.53
2018-10-19T04:40:04.677Z,44.23
2018-10-19T04:45:01.458Z,43.20
2018-10-19T04:49:58.118Z,43.57
2018-10-19T04:54:54.828Z,42.53
2018-10-19T04:59:51.532Z,41.70
2018-10-19T05:04:48.311Z,40.17
2018-10-19T05:09:45.024Z,42.53
2018-10-19T05:14:41.717Z,46.30
2018-10-19T05:19:38.458Z,44.10
2018-10-19T05:24:35.201Z,44.23
2018-10-19T05:29:31.888Z,44.40
2018-10-19T05:34:28.564Z,41.23
2018-10-19T05:39:25.247Z,41.47
2018-10-19T05:44:22.023Z,40.93
2018-10-19T05:49:18.781Z,53.23
2018-10-19T05:54:15.469Z,58.77
2018-10-19T05:59:12.505Z,58.93
2018-10-19T06:04:09.341Z,67.10
2018-10-19T06:09:06.408Z,63.67
2018-10-19T06:14:03.216Z,64.13
2018-10-19T06:19:00.002Z,66.17
2018-10-19T06:23:57.126Z,60.00
2018-10-19T06:28:53.916Z,49.30
2018-10-19T06:33:50.660Z,52.77
2018-10-19T06:38:47.323Z,42.43
2018-10-19T06:43:44.081Z,43.70
2018-10-19T06:48:40.772Z,46.37
2018-10-19T06:53:37.539Z,49.13
2018-10-19T06:58:34.388Z,40.63
2018-10-19T07:03:31.121Z,37.33
2018-10-19T07:08:27.968Z,38.03
2018-10-19T07:13:24.596Z,38.03
2018-10-19T07:18:21.318Z,40.27
2018-10-19T07:23:18.044Z,47.07
2018-10-19T07:28:14.731Z,41.17
2018-10-19T07:33:11.787Z,39.23
2018-10-19T07:38:08.544Z,37.83
2018-10-19T07:43:05.393Z,36.63
2018-10-19T07:48:02.443Z,39.20
2018-10-19T07:52:58.955Z,36.27
2018-10-19T07:57:55.752Z,45.20
2018-10-19T08:02:52.598Z,39.43
2018-10-19T08:07:49.253Z,39.00
2018-10-19T08:12:46.112Z,38.37
2018-10-19T08:17:42.906Z,39.40
2018-10-19T08:22:39.888Z,38.05
2018-10-19T08:27:36.597Z,39.65
2018-10-19T08:32:33.337Z,37.03
2018-10-19T08:37:30.046Z,38.90
2018-10-19T08:42:26.713Z,37.33
2018-10-19T08:47:23.553Z,37.78
2018-10-19T08:52:20.304Z,38.10
2018-10-19T08:57:17.119Z,38.60
2018-10-19T09:02:13.803Z,39.40
2018-10-19T09:07:10.587Z,37.63
2018-10-19T09:12:07.318Z,38.23
2018-10-19T09:17:04.338Z,41.13
2018-10-19T09:22:01.094Z,42.03
2018-10-19T09:26:57.877Z,42.73
2018-10-19T09:31:54.659Z,40.73
2018-10-19T09:36:51.524Z,42.80
2018-10-19T09:41:48.175Z,42.53
2018-10-19T09:46:44.909Z,42.62
2018-10-19T09:51:41.998Z,44.18
2018-10-19T09:56:38.775Z,43.73
2018-10-19T10:01:35.930Z,44.27
2018-10-19T10:06:32.676Z,42.48
2018-10-19T10:11:29.408Z,42.65
2018-10-19T10:16:26.073Z,40.08
2018-10-19T10:21:22.758Z,38.73
2018-10-19T10:26:19.503Z,37.10
2018-10-19T10:31:16.200Z,37.38
2018-10-19T10:36:12.947Z,36.28
2018-10-19T10:41:09.643Z,35.80
2018-10-19T10:46:06.463Z,35.05
2018-10-19T10:51:03.128Z,35.90
2018-10-19T10:55:59.877Z,35.55
2018-10-19T11:00:56.858Z,34.70
2018-10-19T11:05:53.560Z,35.43
2018-10-19T11:10:50.323Z,34.33
2018-10-19T11:15:47.024Z,35.83
2018-10-19T11:20:43.813Z,36.33
2018-10-19T11:25:40.553Z,35.23
2018-10-19T11:30:37.296Z,34.00
2018-10-19T11:35:33.980Z,31.48
2018-10-19T11:40:32.349Z,32.73
2018-10-19T11:45:30.397Z,32.98
2018-10-19T11:50:27.135Z,34.20
2018-10-19T11:55:23.871Z,34.15
2018-10-19T12:00:20.679Z,36.77
2018-10-19T12:05:17.648Z,36.98
2018-10-19T12:10:14.814Z,34.83
2018-10-19T12:15:12.951Z,33.23
2018-10-19T12:20:11.485Z,31.15
2018-10-19T12:25:09.048Z,31.33
2018-10-19T12:30:06.045Z,28.38
2018-10-19T12:35:02.843Z,28.00
2018-10-19T12:39:59.619Z,29.52
2018-10-19T12:44:56.442Z,27.60
2018-10-19T12:49:53.077Z,30.45
2018-10-19T12:54:49.868Z,32.53
2018-10-19T12:59:46.638Z,31.07
2018-10-19T13:04:43.413Z,31.30
2018-10-19T13:09:40.347Z,31.75
2018-10-19T13:14:43.859Z,30.97
2018-10-19T13:19:40.624Z,30.68
2018-10-19T13:24:37.348Z,30.17
2018-10-19T13:29:34.140Z,30.30
2018-10-19T13:34:30.850Z,31.97
2018-10-19T13:39:27.516Z,32.30
2018-10-19T13:44:24.268Z,34.13
2018-10-19T13:49:21.189Z,32.83
2018-10-19T13:54:17.885Z,32.30
2018-10-19T13:59:14.662Z,33.15
2018-10-19T14:04:11.362Z,31.77
2018-10-19T14:09:09.055Z,30.68
2018-10-19T14:14:05.772Z,32.10
2018-10-19T14:19:02.645Z,32.48
2018-10-19T14:23:59.518Z,33.05
2018-10-19T14:28:56.318Z,31.17
2018-10-19T14:33:52.951Z,32.10
2018-10-19T14:38:49.668Z,32.05
2018-10-19T14:43:46.463Z,32.88
2018-10-19T14:48:43.210Z,31.87
2018-10-19T14:53:39.954Z,33.30
2018-10-19T14:58:36.628Z,33.13
2018-10-19T15:03:33.484Z,34.98
2018-10-19T15:08:30.159Z,35.45
2018-10-19T15:13:26.889Z,34.78
2018-10-19T15:18:23.668Z,33.87
2018-10-19T15:23:20.372Z,34.73
2018-10-19T15:28:17.074Z,33.00
2018-10-19T15:33:13.904Z,34.70
2018-10-19T15:38:10.643Z,34.03
2018-10-19T15:43:07.384Z,36.37
2018-10-19T15:48:05.024Z,39.10
2018-10-19T15:53:01.784Z,39.47
2018-10-19T15:57:58.507Z,37.03
2018-10-19T16:02:55.275Z,36.87
2018-10-19T16:07:51.978Z,37.20
2018-10-19T16:12:48.674Z,37.77
2018-10-19T16:17:45.373Z,38.00
2018-10-19T16:22:42.138Z,37.87
2018-10-19T16:27:39.171Z,47.77
2018-10-19T16:32:36.309Z,37.70
2018-10-19T16:37:32.986Z,37.50
2018-10-19T16:42:29.767Z,37.00
2018-10-19T16:47:26.521Z,36.27
2018-10-19T16:52:23.282Z,36.30
2018-10-19T16:57:20.045Z,37.27
2018-10-19T17:02:16.855Z,36.00
2018-10-19T17:07:13.634Z,36.10
2018-10-19T17:12:10.487Z,36.67
2018-10-19T17:17:07.162Z,36.60
2018-10-19T17:22:04.376Z,37.20
2018-10-19T17:27:01.203Z,37.20
2018-10-19T17:31:57.890Z,39.70
2018-10-19T17:36:54.694Z,40.47
2018-10-19T17:41:51.471Z,37.43
2018-10-19T17:46:48.124Z,38.33
2018-10-19T17:51:44.844Z,38.03
2018-10-19T17:56:41.841Z,38.67
2018-10-19T18:01:38.525Z,38.03
2018-10-19T18:06:35.295Z,38.83
2018-10-19T18:11:32.113Z,39.80
2018-10-19T18:16:28.789Z,40.00
2018-10-19T18:21:25.521Z,40.70
2018-10-19T18:26:22.136Z,40.67
2018-10-19T18:31:18.874Z,42.10
2018-10-19T18:36:15.575Z,40.00
2018-10-19T18:41:12.487Z,40.47
2018-10-19T18:46:09.106Z,41.40
2018-10-19T18:51:05.926Z,40.37
2018-10-19T18:56:02.681Z,40.97
2018-10-19T19:00:59.376Z,43.63
2018-10-19T19:05:56.322Z,43.67
2018-10-19T19:10:53.169Z,42.30
2018-10-19T19:15:49.908Z,42.47
2018-10-19T19:20:46.666Z,41.33
2018-10-19T19:25:49.027Z,42.60
2018-10-19T19:30:45.740Z,43.83
2018-10-19T19:35:42.670Z,44.07
2018-10-19T19:40:45.239Z,45.37
2018-10-19T19:45:41.931Z,45.67
2018-10-19T19:50:38.693Z,44.77
2018-10-19T19:55:35.443Z,42.60
2018-10-19T20:00:32.174Z,43.93
2018-10-19T20:05:28.853Z,45.33
2018-10-19T20:10:25.621Z,44.77
2018-10-19T20:15:22.357Z,47.03
2018-10-19T20:20:19.094Z,46.80
2018-10-19T20:25:15.842Z,48.27
2018-10-19T20:30:13.262Z,50.13
2018-10-19T20:35:10.173Z,49.53
2018-10-19T20:40:06.863Z,49.10
2018-10-19T20:45:04.269Z,46.53
2018-10-19T20:50:01.086Z,48.20
2018-10-19T20:54:57.767Z,49.40
2018-10-19T20:59:54.529Z,51.77
2018-10-19T21:04:51.178Z,48.90
2018-10-19T21:09:47.912Z,52.13
2018-10-19T21:14:44.680Z,49.70
2018-10-19T21:19:41.550Z,51.43
2018-10-19T21:24:38.329Z,50.67
2018-10-19T21:29:35.010Z,51.17
2018-10-19T21:34:31.783Z,48.30
2018-10-19T21:39:28.588Z,50.13
2018-10-19T21:44:25.407Z,48.53
2018-10-19T21:49:22.138Z,48.07
2018-10-19T21:54:18.964Z,50.37
2018-10-19T21:59:15.759Z,49.10
2018-10-19T22:04:12.648Z,48.60
2018-10-19T22:09:11.095Z,50.77
2018-10-19T22:14:08.340Z,47.97
2018-10-19T22:19:05.460Z,49.07
2018-10-19T22:24:02.278Z,47.47
2018-10-19T22:28:59.074Z,45.00
2018-10-19T22:33:55.742Z,46.20
2018-10-19T22:38:52.672Z,46.00
2018-10-19T22:43:49.827Z,45.77
2018-10-19T22:48:46.567Z,45.60
2018-10-19T22:53:43.264Z,44.47
2018-10-19T22:58:40.460Z,42.10
2018-10-19T23:03:37.151Z,43.93
2018-10-19T23:08:33.884Z,42.60
2018-10-19T23:13:30.658Z,44.37
2018-10-19T23:18:27.349Z,43.10
2018-10-19T23:23:24.034Z,43.03
2018-10-19T23:28:20.827Z,45.23
2018-10-19T23:33:17.523Z,44.37
2018-10-19T23:38:14.232Z,45.33
2018-10-19T23:43:11.041Z,43.40
2018-10-19T23:48:07.738Z,45.93
2018-10-19T23:53:04.633Z,43.17
2018-10-19T23:58:01.340Z,44.43
